Flight Track Log - Related Links

Times and Time Zones

All times are in EDT time to prevent confusion due to time zone crossing. See the N830QS flight status page for this flight to view local times or setup timezone preferences in your user account.

Time Position Orientation Groundspeed Altitude Reporting Facility
EDT Latitude Longitude Course Direction KTS MPH feet Rate Location/Type
Fri 09:52:27 AM 40.9000 -74.0333 288° West 193 222 2,000  Level New York TRACON
Fri 09:53:27 AM 40.9167 -74.1000 288° West 240 276 2,600 1,109 Climbing New York TRACON
Fri 09:54:26 AM 40.9167 -74.1833 270° West 236 272 4,200 2,400 Climbing New York TRACON
Fri 09:55:27 AM 40.9167 -74.2833 270° West 274 315 7,400 1,884 Climbing New York TRACON
Fri 09:56:27 AM 40.9167 -74.4000 270° West 296 341 8,000 1,333 Climbing New York TRACON
Fri 09:57:51 AM 40.8972 -74.5456 260° West 316 364 10,600 2,500 Climbing New York Center
Fri 09:58:51 AM 40.8808 -74.6628 260° West 311 358 14,000 3,000 Climbing New York Center
Fri 09:59:51 AM 40.8833 -74.7781 272° West 318 366 16,600 2,000 Climbing New York Center
Fri 10:00:51 AM 40.8917 -74.8939 275° West 338 389 18,000 700 Climbing New York Center
Fri 10:01:51 AM 40.8700 -75.0325 258° West 371 427 18,000  Level New York Center
Fri 10:02:51 AM 40.8478 -75.1875 259° West 396 456 18,000  Level New York Center
Fri 10:03:51 AM 40.8236 -75.3286 257° West 396 456 18,000  Level New York Center
Fri 10:04:51 AM 40.8014 -75.4725 259° West 396 456 18,000  Level New York Center
Fri 10:05:51 AM 40.7769 -75.6133 257° West 396 456 18,000  Level New York Center
Fri 10:06:51 AM 40.7528 -75.7403 256° West 401 461 18,000  Level New York Center
Fri 10:07:51 AM 40.7306 -75.8756 258° West 396 456 18,000  Level New York Center
Fri 10:08:51 AM 40.7425 -76.0272 276° West 379 436 18,000  Level New York Center
Fri 10:09:51 AM 40.7553 -76.1625 277° West 388 447 18,000  Level New York Center
Fri 10:10:51 AM 40.7714 -76.3061 278° West 393 452 18,000 -150 Level New York Center
Fri 10:11:51 AM 40.7842 -76.4333 278° West 393 452 17,700 -1,050 Descending New York Center
Fri 10:12:51 AM 40.7981 -76.5769 277° West 375 432 15,900 -1,550 Descending New York Center
Fri 10:13:51 AM 40.8278 -76.6919 289° West 365 420 14,600 -1,400 Descending New York Center
Fri 10:14:51 AM 40.8631 -76.8186 290° West 371 427 13,100 -1,550 Descending New York Center
Fri 10:15:51 AM 40.8997 -76.9592 289° West 371 427 11,500 2,450 Descending New York Center
Fri 10:16:51 AM 40.9261 -77.0881 285° West 371 427 18,000 -1,500 Climbing New York Center
Fri 10:17:51 AM 40.9425 -77.2131 280° West 364 419 8,500 -5,800 Descending New York Center
Fri 10:18:51 AM 40.9586 -77.3328 280° West 351 404 6,400 -1,850 Descending New York Center
Fri 10:19:51 AM 40.9717 -77.4386 279° West 324 373 4,800 -1,100 Descending New York Center
Fri 10:20:51 AM 40.9847 -77.5389 280° West 298 343 4,200 -300 Descending New York Center
Fri 10:21:51 AM 40.9761 -77.6150 262° West 252 290 4,200  Level New York Center
Fri 10:22:51 AM 40.9497 -77.6756 240° Southwest 202 232 4,200 -500 Level New York Center
Fri 10:23:51 AM 40.9172 -77.7328 233° Southwest 202 232 3,200 -900 Descending New York Center
Fri 10:24:51 AM 40.8894 -77.7792 232° Southwest 191 220 2,400 -600 Descending New York Center
Fri 10:25:51 AM 40.8633 -77.8314 237° Southwest 185 213 2,000 -400 Descending New York Center
Fri 10:27:00 AM 40.8493 -77.8487 270° West  Level Estimated

Login

Don't have an account? Register now (free) for customized features, flight alerts, and more!